HST,Max TemperatureF,Mean TemperatureF,Min TemperatureF,Max Dew PointF,MeanDew PointF,Min DewpointF,Max Humidity, Mean Humidity, Min Humidity, Max Sea Level PressureIn, Mean Sea Level PressureIn, Min Sea Level PressureIn, Max VisibilityMiles, Mean VisibilityMiles, Min VisibilityMiles, Max Wind SpeedMPH, Mean Wind SpeedMPH, Max Gust SpeedMPH,PrecipitationIn, CloudCover, Events, WindDirDegrees
2012-11-1,83,74,65,65,60,51,81,66,51,30.03,30.00,29.95,10,10,10,14,8,17,0.00,3,,206
2012-11-2,84,75,66,66,61,53,73,60,47,30.00,29.96,29.89,10,10,10,17,8,21,0.00,4,,197
2012-11-3,84,76,67,67,63,57,79,65,51,30.02,29.98,29.93,10,10,7,17,6,20,T,6,Rain,184
2012-11-4,84,77,69,70,66,60,87,73,58,30.01,29.97,29.93,10,10,9,14,6,23,0.02,6,Rain,193
2012-11-5,84,76,67,72,68,56,93,74,55,29.99,29.95,29.90,10,6,2,14,6,17,0.61,7,Rain,239
2012-11-6,83,76,69,70,67,63,93,72,51,30.00,29.95,29.89,10,9,2,13,4,15,0.20,6,Rain,326
2012-11-7,84,75,65,68,63,54,84,71,58,30.06,30.00,29.96,10,10,7,14,6,18,0.01,3,Rain,221
2012-11-8,83,75,66,68,65,60,93,76,58,30.11,30.07,30.02,10,9,2,16,6,18,0.41,5,Rain,239
2012-11-9,81,74,67,69,65,62,93,76,58,30.13,30.08,30.02,10,8,1,16,6,22,0.62,6,Rain,285
2012-11-10,82,74,65,65,63,60,87,71,54,30.09,30.05,29.99,10,10,10,14,6,18,0.04,5,Rain,275
2012-11-11,82,73,64,66,63,59,87,71,54,30.09,30.05,30.00,10,10,6,13,6,15,0.15,4,Rain,248
2012-11-12,82,73,63,67,63,55,87,71,54,30.13,30.08,30.02,10,10,10,15,6,21,0.10,3,Rain,293
2012-11-13,81,73,65,67,64,61,87,73,58,30.14,30.10,30.04,10,10,2,14,6,17,0.22,5,Rain,282
2012-11-14,81,74,66,68,65,61,93,78,62,30.16,30.12,30.08,10,8,2,16,6,22,0.52,6,Rain,295
2012-11-15,78,73,67,68,65,62,90,77,64,30.16,30.11,30.06,10,9,2,15,6,20,0.33,7,Rain,15
2012-11-16,76,71,65,67,64,63,93,81,69,30.14,30.09,30.05,10,9,2,15,5,20,0.23,7,Rain,265
2012-11-17,80,74,67,67,64,61,87,75,62,30.14,30.08,30.04,10,10,10,16,6,21,0.01,6,Rain,219
2012-11-18,81,74,67,67,63,60,87,71,54,30.15,30.09,30.05,10,10,10,18,5,26,0.01,6,Rain,210
2012-11-19,81,75,68,68,65,61,90,74,58,30.13,30.08,30.03,10,9,2,17,6,20,0.13,7,Rain,236
2012-11-20,73,70,67,70,67,66,97,88,79,30.11,30.05,30.00,10,7,2,9,5,10,0.44,8,Rain,263
2012-11-21,79,74,69,69,67,66,90,79,67,30.03,29.99,29.92,10,10,6,9,4,12,0.01,8,Rain,217
2012-11-22,81,75,69,72,69,66,97,83,69,29.99,29.95,29.88,10,8,2,13,3,15,0.67,7,Rain,182
2012-11-23,81,74,66,70,67,62,93,80,67,30.01,29.96,29.90,10,10,10,15,4,18,T,5,Rain,206
2012-11-24,81,73,64,70,65,58,87,78,69,30.01,29.97,29.91,10,10,7,12,6,16,T,3,Rain,258
2012-11-25,80,72,64,69,64,57,87,77,67,30.01,29.97,29.91,10,10,10,17,8,23,0.05,5,Rain,319
2012-11-26,77,71,64,67,64,58,90,77,64,30.08,30.00,29.95,10,10,5,15,8,21,0.03,7,Rain,345
2012-11-27,78,72,66,66,64,60,93,79,64,30.10,30.06,30.01,10,8,2,15,7,21,0.71,8,Rain,318
2012-11-28,80,71,61,64,60,53,93,74,54,30.09,30.04,29.98,10,10,10,14,5,20,0.00,4,,208
2012-11-29,80,72,63,65,60,52,87,72,56,30.09,30.04,29.98,10,10,7,13,6,16,0.00,3,,185
2012-11-30,81,72,63,66,63,56,90,76,62,30.07,30.03,29.98,10,10,10,13,5,16,0.00,5,,182